KJFK/JFK METAR and TAF weather

Enter ICAO airport designator
Station Type Date Time Source
KJFK METAR 2023/06/01 09:51 UTC NOAA

KJFK 010951Z 00000KT 10SM FEW300 14/12 A3013 RMK AO2 SLP201 FU FEW300 T01440122


Station Type Date Time Source
KJFK Decoded METAR 2023/06/01 09:51 UTC NOAA

KENNEDY INTERNATIONAL AIRPORT , NY, United States (KJFK) 40-38N 073-46W 9M
Jun 01, 2023 - 05:51 AM EDT / 2023.06.01 0951 UTC
Wind: Calm:0
Visibility: 10 mile(s):0
Sky conditions: mostly clear
Temperature: 57.9 F (14.4 C)
Dew Point: 54.0 F (12.2 C)
Relative Humidity: 86%
Pressure (altimeter): 30.13 in. Hg (1020 hPa)
ob: KJFK 010951Z 00000KT 10SM FEW300 14/12 A3013 RMK AO2 SLP201 FU FEW300 T01440122
cycle: 10

Station Type Date Time Source
KJFK TAF 2023/06/01 09:39 UTC NOAA

TAF
AMD KJFK 010832Z 0109/0212 02004KT P6SM SKC
FM011500 18007KT P6SM SKC
FM011800 16010KT P6SM SKC
FM020100 20005KT P6SM SKC
FM020600 VRB04KT P6SM FEW080

Example: see airport list